sensor_id;sensor_type;location;lat;lon;timestamp;P1;durP1;ratioP1;P2;durP2;ratioP2
9140;SDS011;46330;50.822;7.126;2024-03-25T00:03:30;8.73;;;3.00;;
9140;SDS011;46330;50.822;7.126;2024-03-25T00:08:24;16.13;;;3.03;;
9140;SDS011;46330;50.822;7.126;2024-03-25T00:13:20;7.20;;;2.97;;
9140;SDS011;46330;50.822;7.126;2024-03-25T00:18:13;9.52;;;2.47;;
9140;SDS011;46330;50.822;7.126;2024-03-25T00:20:39;10.48;;;2.78;;
9140;SDS011;46330;50.822;7.126;2024-03-25T00:23:08;13.48;;;3.15;;
9140;SDS011;46330;50.822;7.126;2024-03-25T00:25:34;12.73;;;3.13;;
9140;SDS011;46330;50.822;7.126;2024-03-25T00:28:01;6.97;;;2.33;;
9140;SDS011;46330;50.822;7.126;2024-03-25T00:32:54;8.38;;;2.97;;
9140;SDS011;46330;50.822;7.126;2024-03-25T00:37:47;11.57;;;2.75;;
9140;SDS011;46330;50.822;7.126;2024-03-25T00:40:14;9.98;;;3.05;;
9140;SDS011;46330;50.822;7.126;2024-03-25T00:42:41;9.98;;;2.83;;
9140;SDS011;46330;50.822;7.126;2024-03-25T00:47:35;10.32;;;2.78;;
9140;SDS011;46330;50.822;7.126;2024-03-25T00:52:27;11.32;;;2.60;;
9140;SDS011;46330;50.822;7.126;2024-03-25T00:54:54;8.25;;;2.70;;
9140;SDS011;46330;50.822;7.126;2024-03-25T00:57:22;12.38;;;2.72;;
9140;SDS011;46330;50.822;7.126;2024-03-25T00:59:48;10.25;;;3.10;;
9140;SDS011;46330;50.822;7.126;2024-03-25T01:02:15;8.38;;;3.10;;
9140;SDS011;46330;50.822;7.126;2024-03-25T01:04:42;10.05;;;2.95;;
9140;SDS011;46330;50.822;7.126;2024-03-25T01:07:09;9.82;;;3.03;;
9140;SDS011;46330;50.822;7.126;2024-03-25T01:12:02;10.00;;;3.35;;
9140;SDS011;46330;50.822;7.126;2024-03-25T01:14:30;12.55;;;3.00;;
9140;SDS011;46330;50.822;7.126;2024-03-25T01:16:57;16.17;;;3.42;;
9140;SDS011;46330;50.822;7.126;2024-03-25T01:21:50;6.22;;;2.60;;
9140;SDS011;46330;50.822;7.126;2024-03-25T01:26:43;7.10;;;2.13;;
9140;SDS011;46330;50.822;7.126;2024-03-25T01:29:09;10.68;;;2.35;;
9140;SDS011;46330;50.822;7.126;2024-03-25T01:31:37;13.00;;;2.63;;
9140;SDS011;46330;50.822;7.126;2024-03-25T01:34:03;11.50;;;2.58;;
9140;SDS011;46330;50.822;7.126;2024-03-25T01:36:31;9.05;;;2.70;;
9140;SDS011;46330;50.822;7.126;2024-03-25T01:38:58;10.95;;;2.90;;
9140;SDS011;46330;50.822;7.126;2024-03-25T01:41:25;12.35;;;3.45;;
9140;SDS011;46330;50.822;7.126;2024-03-25T01:43:52;16.17;;;2.92;;
9140;SDS011;46330;50.822;7.126;2024-03-25T01:46:19;7.90;;;2.38;;
9140;SDS011;46330;50.822;7.126;2024-03-25T01:48:48;10.25;;;2.78;;
9140;SDS011;46330;50.822;7.126;2024-03-25T01:51:17;13.65;;;2.90;;
9140;SDS011;46330;50.822;7.126;2024-03-25T01:53:46;13.68;;;2.65;;
9140;SDS011;46330;50.822;7.126;2024-03-25T01:56:14;11.15;;;2.30;;
9140;SDS011;46330;50.822;7.126;2024-03-25T01:58:42;7.90;;;2.45;;
9140;SDS011;46330;50.822;7.126;2024-03-25T02:01:09;14.27;;;2.40;;
9140;SDS011;46330;50.822;7.126;2024-03-25T02:03:39;14.57;;;2.83;;
9140;SDS011;46330;50.822;7.126;2024-03-25T02:06:09;14.23;;;2.67;;
9140;SDS011;46330;50.822;7.126;2024-03-25T02:08:39;11.70;;;2.33;;
9140;SDS011;46330;50.822;7.126;2024-03-25T02:11:06;15.88;;;2.90;;
9140;SDS011;46330;50.822;7.126;2024-03-25T02:13:33;9.38;;;2.40;;
9140;SDS011;46330;50.822;7.126;2024-03-25T02:16:01;8.98;;;2.47;;
9140;SDS011;46330;50.822;7.126;2024-03-25T02:18:28;11.35;;;2.53;;
9140;SDS011;46330;50.822;7.126;2024-03-25T02:20:56;10.23;;;2.20;;
9140;SDS011;46330;50.822;7.126;2024-03-25T02:23:24;11.40;;;2.53;;
9140;SDS011;46330;50.822;7.126;2024-03-25T02:25:53;9.15;;;2.40;;
9140;SDS011;46330;50.822;7.126;2024-03-25T02:28:19;11.85;;;3.03;;
9140;SDS011;46330;50.822;7.126;2024-03-25T02:30:47;17.95;;;2.65;;
9140;SDS011;46330;50.822;7.126;2024-03-25T02:33:13;13.88;;;2.58;;
9140;SDS011;46330;50.822;7.126;2024-03-25T02:35:40;7.78;;;2.67;;
9140;SDS011;46330;50.822;7.126;2024-03-25T02:38:07;7.72;;;2.28;;
9140;SDS011;46330;50.822;7.126;2024-03-25T02:40:36;16.83;;;2.95;;
9140;SDS011;46330;50.822;7.126;2024-03-25T02:43:04;14.18;;;2.50;;
9140;SDS011;46330;50.822;7.126;2024-03-25T02:45:32;21.08;;;3.50;;
9140;SDS011;46330;50.822;7.126;2024-03-25T02:47:59;13.02;;;2.42;;
9140;SDS011;46330;50.822;7.126;2024-03-25T02:50:25;11.25;;;2.42;;
9140;SDS011;46330;50.822;7.126;2024-03-25T02:55:18;10.80;;;2.97;;
9140;SDS011;46330;50.822;7.126;2024-03-25T02:57:44;13.73;;;2.58;;
9140;SDS011;46330;50.822;7.126;2024-03-25T03:00:13;11.43;;;2.78;;
9140;SDS011;46330;50.822;7.126;2024-03-25T03:02:39;9.10;;;2.30;;
9140;SDS011;46330;50.822;7.126;2024-03-25T03:05:07;15.10;;;2.53;;
9140;SDS011;46330;50.822;7.126;2024-03-25T03:07:33;8.90;;;2.55;;
9140;SDS011;46330;50.822;7.126;2024-03-25T03:10:00;8.95;;;2.30;;
9140;SDS011;46330;50.822;7.126;2024-03-25T03:12:26;9.45;;;2.90;;
9140;SDS011;46330;50.822;7.126;2024-03-25T03:14:53;11.98;;;3.10;;
9140;SDS011;46330;50.822;7.126;2024-03-25T03:19:47;15.57;;;2.97;;
9140;SDS011;46330;50.822;7.126;2024-03-25T03:24:40;10.35;;;2.35;;
9140;SDS011;46330;50.822;7.126;2024-03-25T03:29:33;10.23;;;2.40;;
9140;SDS011;46330;50.822;7.126;2024-03-25T03:34:27;6.00;;;2.30;;
9140;SDS011;46330;50.822;7.126;2024-03-25T03:36:53;11.73;;;2.38;;
9140;SDS011;46330;50.822;7.126;2024-03-25T03:39:21;9.80;;;2.53;;
9140;SDS011;46330;50.822;7.126;2024-03-25T03:44:13;9.75;;;2.70;;
9140;SDS011;46330;50.822;7.126;2024-03-25T03:46:40;15.20;;;2.70;;
9140;SDS011;46330;50.822;7.126;2024-03-25T03:49:07;7.57;;;2.17;;
9140;SDS011;46330;50.822;7.126;2024-03-25T03:54:01;11.80;;;2.33;;
9140;SDS011;46330;50.822;7.126;2024-03-25T03:56:27;9.75;;;2.55;;
9140;SDS011;46330;50.822;7.126;2024-03-25T03:58:55;11.13;;;2.72;;
9140;SDS011;46330;50.822;7.126;2024-03-25T04:03:47;7.47;;;2.45;;
9140;SDS011;46330;50.822;7.126;2024-03-25T04:06:14;11.57;;;2.13;;
9140;SDS011;46330;50.822;7.126;2024-03-25T04:08:42;17.33;;;4.93;;
9140;SDS011;46330;50.822;7.126;2024-03-25T04:11:08;11.82;;;3.47;;
9140;SDS011;46330;50.822;7.126;2024-03-25T04:13:37;12.55;;;2.83;;
9140;SDS011;46330;50.822;7.126;2024-03-25T04:16:04;11.50;;;3.70;;
9140;SDS011;46330;50.822;7.126;2024-03-25T04:18:33;15.50;;;3.70;;
9140;SDS011;46330;50.822;7.126;2024-03-25T04:20:59;11.20;;;2.90;;
9140;SDS011;46330;50.822;7.126;2024-03-25T04:23:26;9.25;;;2.88;;
9140;SDS011;46330;50.822;7.126;2024-03-25T04:25:54;8.40;;;2.67;;
9140;SDS011;46330;50.822;7.126;2024-03-25T04:28:21;11.80;;;2.53;;
9140;SDS011;46330;50.822;7.126;2024-03-25T04:30:51;8.95;;;2.35;;
9140;SDS011;46330;50.822;7.126;2024-03-25T04:33:19;12.85;;;2.75;;
9140;SDS011;46330;50.822;7.126;2024-03-25T04:38:12;10.95;;;2.38;;
9140;SDS011;46330;50.822;7.126;2024-03-25T04:40:41;9.50;;;2.30;;
9140;SDS011;46330;50.822;7.126;2024-03-25T04:45:34;5.80;;;2.10;;
9140;SDS011;46330;50.822;7.126;2024-03-25T04:50:26;7.93;;;2.08;;
9140;SDS011;46330;50.822;7.126;2024-03-25T04:52:52;12.65;;;2.50;;
9140;SDS011;46330;50.822;7.126;2024-03-25T04:57:46;8.98;;;2.17;;
9140;SDS011;46330;50.822;7.126;2024-03-25T05:02:40;11.27;;;2.22;;
9140;SDS011;46330;50.822;7.126;2024-03-25T05:07:32;9.90;;;2.40;;
9140;SDS011;46330;50.822;7.126;2024-03-25T05:12:24;5.82;;;2.30;;
9140;SDS011;46330;50.822;7.126;2024-03-25T05:14:50;9.88;;;2.40;;
9140;SDS011;46330;50.822;7.126;2024-03-25T05:19:43;10.60;;;2.63;;
9140;SDS011;46330;50.822;7.126;2024-03-25T05:24:35;12.80;;;2.95;;
9140;SDS011;46330;50.822;7.126;2024-03-25T05:27:01;7.00;;;3.22;;
9140;SDS011;46330;50.822;7.126;2024-03-25T05:29:27;15.13;;;3.72;;
9140;SDS011;46330;50.822;7.126;2024-03-25T05:34:25;7.05;;;2.65;;
9140;SDS011;46330;50.822;7.126;2024-03-25T05:36:51;8.88;;;2.65;;
9140;SDS011;46330;50.822;7.126;2024-03-25T05:39:17;7.30;;;2.72;;
9140;SDS011;46330;50.822;7.126;2024-03-25T05:41:44;9.15;;;2.63;;
9140;SDS011;46330;50.822;7.126;2024-03-25T05:46:36;8.75;;;3.03;;
9140;SDS011;46330;50.822;7.126;2024-03-25T05:51:29;8.80;;;2.28;;
9140;SDS011;46330;50.822;7.126;2024-03-25T05:53:55;16.35;;;3.72;;
9140;SDS011;46330;50.822;7.126;2024-03-25T05:56:22;10.77;;;2.47;;
9140;SDS011;46330;50.822;7.126;2024-03-25T05:58:48;7.45;;;2.70;;
9140;SDS011;46330;50.822;7.126;2024-03-25T06:03:40;11.73;;;2.83;;
9140;SDS011;46330;50.822;7.126;2024-03-25T06:08:33;7.20;;;2.65;;
9140;SDS011;46330;50.822;7.126;2024-03-25T06:11:02;14.93;;;2.67;;
9140;SDS011;46330;50.822;7.126;2024-03-25T06:13:29;10.45;;;2.83;;
9140;SDS011;46330;50.822;7.126;2024-03-25T06:15:55;16.00;;;3.83;;
9140;SDS011;46330;50.822;7.126;2024-03-25T06:20:48;12.40;;;3.10;;
9140;SDS011;46330;50.822;7.126;2024-03-25T06:25:51;8.02;;;2.97;;
9140;SDS011;46330;50.822;7.126;2024-03-25T06:28:19;12.52;;;3.25;;
9140;SDS011;46330;50.822;7.126;2024-03-25T06:30:45;11.60;;;3.13;;
9140;SDS011;46330;50.822;7.126;2024-03-25T06:33:30;9.45;;;3.22;;
9140;SDS011;46330;50.822;7.126;2024-03-25T06:36:15;12.88;;;3.00;;
9140;SDS011;46330;50.822;7.126;2024-03-25T06:38:41;9.13;;;2.53;;
9140;SDS011;46330;50.822;7.126;2024-03-25T06:41:09;6.85;;;2.53;;
9140;SDS011;46330;50.822;7.126;2024-03-25T06:43:35;7.65;;;2.53;;
9140;SDS011;46330;50.822;7.126;2024-03-25T06:46:01;9.73;;;2.42;;
9140;SDS011;46330;50.822;7.126;2024-03-25T06:48:29;10.48;;;2.80;;
9140;SDS011;46330;50.822;7.126;2024-03-25T06:50:55;9.02;;;2.53;;
9140;SDS011;46330;50.822;7.126;2024-03-25T06:53:23;7.15;;;2.40;;
9140;SDS011;46330;50.822;7.126;2024-03-25T06:55:53;11.73;;;2.38;;
9140;SDS011;46330;50.822;7.126;2024-03-25T06:58:22;11.70;;;2.35;;
9140;SDS011;46330;50.822;7.126;2024-03-25T07:00:49;11.02;;;2.13;;
9140;SDS011;46330;50.822;7.126;2024-03-25T07:03:15;7.60;;;2.08;;
9140;SDS011;46330;50.822;7.126;2024-03-25T07:05:44;8.55;;;2.20;;
9140;SDS011;46330;50.822;7.126;2024-03-25T07:08:10;9.00;;;3.15;;
9140;SDS011;46330;50.822;7.126;2024-03-25T07:10:36;9.48;;;2.33;;
9140;SDS011;46330;50.822;7.126;2024-03-25T07:13:02;8.35;;;2.13;;
9140;SDS011;46330;50.822;7.126;2024-03-25T07:15:30;9.05;;;2.42;;
9140;SDS011;46330;50.822;7.126;2024-03-25T07:17:56;7.22;;;1.92;;
9140;SDS011;46330;50.822;7.126;2024-03-25T07:20:22;9.70;;;2.20;;
9140;SDS011;46330;50.822;7.126;2024-03-25T07:22:48;7.40;;;2.20;;
9140;SDS011;46330;50.822;7.126;2024-03-25T07:25:14;8.43;;;2.30;;
9140;SDS011;46330;50.822;7.126;2024-03-25T07:27:40;7.35;;;1.90;;
9140;SDS011;46330;50.822;7.126;2024-03-25T07:30:07;6.22;;;1.73;;
9140;SDS011;46330;50.822;7.126;2024-03-25T07:32:35;4.28;;;1.88;;
9140;SDS011;46330;50.822;7.126;2024-03-25T07:35:01;8.43;;;2.30;;
9140;SDS011;46330;50.822;7.126;2024-03-25T07:37:27;9.48;;;2.30;;
9140;SDS011;46330;50.822;7.126;2024-03-25T07:39:54;4.50;;;1.83;;
9140;SDS011;46330;50.822;7.126;2024-03-25T07:42:20;7.28;;;1.92;;
9140;SDS011;46330;50.822;7.126;2024-03-25T07:44:46;6.82;;;1.73;;
9140;SDS011;46330;50.822;7.126;2024-03-25T07:47:12;8.38;;;1.80;;
9140;SDS011;46330;50.822;7.126;2024-03-25T07:49:40;8.80;;;2.40;;
9140;SDS011;46330;50.822;7.126;2024-03-25T07:52:07;7.80;;;2.75;;
9140;SDS011;46330;50.822;7.126;2024-03-25T07:54:33;5.65;;;2.00;;
9140;SDS011;46330;50.822;7.126;2024-03-25T07:56:59;5.70;;;1.77;;
9140;SDS011;46330;50.822;7.126;2024-03-25T07:59:25;7.45;;;1.80;;
9140;SDS011;46330;50.822;7.126;2024-03-25T08:01:51;6.82;;;2.00;;
9140;SDS011;46330;50.822;7.126;2024-03-25T08:04:17;5.63;;;1.98;;
9140;SDS011;46330;50.822;7.126;2024-03-25T08:06:44;7.93;;;2.47;;
9140;SDS011;46330;50.822;7.126;2024-03-25T08:09:10;8.88;;;2.22;;
9140;SDS011;46330;50.822;7.126;2024-03-25T08:11:37;6.90;;;2.30;;
9140;SDS011;46330;50.822;7.126;2024-03-25T08:14:03;8.35;;;2.22;;
9140;SDS011;46330;50.822;7.126;2024-03-25T08:16:29;10.77;;;2.88;;
9140;SDS011;46330;50.822;7.126;2024-03-25T08:18:56;7.05;;;2.17;;
9140;SDS011;46330;50.822;7.126;2024-03-25T08:21:22;6.13;;;1.90;;
9140;SDS011;46330;50.822;7.126;2024-03-25T08:23:50;10.45;;;2.10;;
9140;SDS011;46330;50.822;7.126;2024-03-25T08:26:16;8.95;;;1.83;;
9140;SDS011;46330;50.822;7.126;2024-03-25T08:28:42;8.88;;;2.03;;
9140;SDS011;46330;50.822;7.126;2024-03-25T08:31:08;11.23;;;2.20;;
9140;SDS011;46330;50.822;7.126;2024-03-25T08:33:34;8.25;;;2.05;;
9140;SDS011;46330;50.822;7.126;2024-03-25T08:36:00;5.85;;;2.10;;
9140;SDS011;46330;50.822;7.126;2024-03-25T08:38:26;8.88;;;2.05;;
9140;SDS011;46330;50.822;7.126;2024-03-25T08:40:54;8.45;;;2.30;;
9140;SDS011;46330;50.822;7.126;2024-03-25T08:43:20;6.78;;;1.85;;
9140;SDS011;46330;50.822;7.126;2024-03-25T08:45:46;8.90;;;2.17;;
9140;SDS011;46330;50.822;7.126;2024-03-25T08:48:12;6.93;;;1.95;;
9140;SDS011;46330;50.822;7.126;2024-03-25T08:50:38;6.90;;;1.98;;
9140;SDS011;46330;50.822;7.126;2024-03-25T08:53:04;14.85;;;2.30;;
9140;SDS011;46330;50.822;7.126;2024-03-25T08:55:30;11.10;;;1.98;;
9140;SDS011;46330;50.822;7.126;2024-03-25T08:57:58;6.65;;;1.65;;
9140;SDS011;46330;50.822;7.126;2024-03-25T09:00:24;8.68;;;1.65;;
9140;SDS011;46330;50.822;7.126;2024-03-25T09:02:50;7.38;;;1.48;;
9140;SDS011;46330;50.822;7.126;2024-03-25T09:05:16;6.95;;;1.50;;
9140;SDS011;46330;50.822;7.126;2024-03-25T09:07:43;6.03;;;1.50;;
9140;SDS011;46330;50.822;7.126;2024-03-25T09:10:10;5.38;;;1.33;;
9140;SDS011;46330;50.822;7.126;2024-03-25T09:15:22;7.13;;;1.50;;
9140;SDS011;46330;50.822;7.126;2024-03-25T09:17:48;8.07;;;2.03;;
9140;SDS011;46330;50.822;7.126;2024-03-25T09:20:14;8.05;;;1.98;;
9140;SDS011;46330;50.822;7.126;2024-03-25T09:22:42;6.45;;;1.52;;
9140;SDS011;46330;50.822;7.126;2024-03-25T09:25:08;9.10;;;1.73;;
9140;SDS011;46330;50.822;7.126;2024-03-25T09:27:34;7.70;;;1.77;;
9140;SDS011;46330;50.822;7.126;2024-03-25T09:30:00;8.57;;;1.73;;
9140;SDS011;46330;50.822;7.126;2024-03-25T09:32:28;9.00;;;1.67;;
9140;SDS011;46330;50.822;7.126;2024-03-25T09:34:54;7.25;;;1.60;;
9140;SDS011;46330;50.822;7.126;2024-03-25T09:37:20;10.43;;;1.85;;
9140;SDS011;46330;50.822;7.126;2024-03-25T09:39:46;6.38;;;1.75;;
9140;SDS011;46330;50.822;7.126;2024-03-25T09:42:14;7.40;;;1.80;;
9140;SDS011;46330;50.822;7.126;2024-03-25T09:44:44;10.05;;;2.00;;
9140;SDS011;46330;50.822;7.126;2024-03-25T09:47:10;7.97;;;2.63;;
9140;SDS011;46330;50.822;7.126;2024-03-25T09:49:38;6.60;;;1.55;;
9140;SDS011;46330;50.822;7.126;2024-03-25T09:52:06;7.68;;;1.80;;
9140;SDS011;46330;50.822;7.126;2024-03-25T09:54:32;7.95;;;1.83;;
9140;SDS011;46330;50.822;7.126;2024-03-25T09:56:59;8.30;;;1.73;;
9140;SDS011;46330;50.822;7.126;2024-03-25T09:59:26;7.35;;;1.52;;
9140;SDS011;46330;50.822;7.126;2024-03-25T10:01:52;6.18;;;1.63;;
9140;SDS011;46330;50.822;7.126;2024-03-25T10:04:19;5.82;;;1.60;;
9140;SDS011;46330;50.822;7.126;2024-03-25T10:06:47;6.65;;;1.67;;
9140;SDS011;46330;50.822;7.126;2024-03-25T10:09:13;9.82;;;2.10;;
9140;SDS011;46330;50.822;7.126;2024-03-25T10:11:46;9.20;;;1.63;;
9140;SDS011;46330;50.822;7.126;2024-03-25T10:14:14;6.82;;;1.65;;
9140;SDS011;46330;50.822;7.126;2024-03-25T10:16:41;6.25;;;2.05;;
9140;SDS011;46330;50.822;7.126;2024-03-25T10:19:07;9.63;;;2.60;;
9140;SDS011;46330;50.822;7.126;2024-03-25T10:21:33;7.78;;;1.83;;
9140;SDS011;46330;50.822;7.126;2024-03-25T10:24:01;6.40;;;1.80;;
9140;SDS011;46330;50.822;7.126;2024-03-25T10:26:31;4.35;;;1.48;;
9140;SDS011;46330;50.822;7.126;2024-03-25T10:28:59;8.95;;;1.60;;
9140;SDS011;46330;50.822;7.126;2024-03-25T10:31:26;5.47;;;1.73;;
9140;SDS011;46330;50.822;7.126;2024-03-25T10:33:52;11.23;;;1.80;;
9140;SDS011;46330;50.822;7.126;2024-03-25T10:36:19;5.07;;;1.33;;
9140;SDS011;46330;50.822;7.126;2024-03-25T10:38:46;5.22;;;1.70;;
9140;SDS011;46330;50.822;7.126;2024-03-25T10:41:16;5.85;;;1.38;;
9140;SDS011;46330;50.822;7.126;2024-03-25T10:43:43;8.60;;;1.50;;
9140;SDS011;46330;50.822;7.126;2024-03-25T10:46:11;4.20;;;1.08;;
9140;SDS011;46330;50.822;7.126;2024-03-25T10:48:41;6.93;;;1.35;;
9140;SDS011;46330;50.822;7.126;2024-03-25T10:51:13;5.75;;;1.30;;
9140;SDS011;46330;50.822;7.126;2024-03-25T10:53:39;7.20;;;1.88;;
9140;SDS011;46330;50.822;7.126;2024-03-25T10:56:08;4.75;;;1.50;;
9140;SDS011;46330;50.822;7.126;2024-03-25T10:58:37;7.55;;;1.60;;
9140;SDS011;46330;50.822;7.126;2024-03-25T11:01:05;4.65;;;1.40;;
9140;SDS011;46330;50.822;7.126;2024-03-25T11:03:33;8.98;;;1.58;;
9140;SDS011;46330;50.822;7.126;2024-03-25T11:06:00;5.43;;;1.60;;
9140;SDS011;46330;50.822;7.126;2024-03-25T11:08:30;4.53;;;1.38;;
9140;SDS011;46330;50.822;7.126;2024-03-25T11:10:57;5.53;;;1.50;;
9140;SDS011;46330;50.822;7.126;2024-03-25T11:13:26;4.07;;;1.50;;
9140;SDS011;46330;50.822;7.126;2024-03-25T11:15:54;6.50;;;1.50;;
9140;SDS011;46330;50.822;7.126;2024-03-25T11:18:22;7.70;;;1.70;;
9140;SDS011;46330;50.822;7.126;2024-03-25T11:20:59;5.63;;;1.60;;
9140;SDS011;46330;50.822;7.126;2024-03-25T11:23:26;5.65;;;1.40;;
9140;SDS011;46330;50.822;7.126;2024-03-25T11:25:54;5.95;;;1.88;;
9140;SDS011;46330;50.822;7.126;2024-03-25T11:28:28;5.40;;;1.58;;
9140;SDS011;46330;50.822;7.126;2024-03-25T11:30:56;4.25;;;1.58;;
9140;SDS011;46330;50.822;7.126;2024-03-25T11:33:22;6.47;;;1.70;;
9140;SDS011;46330;50.822;7.126;2024-03-25T11:35:49;5.43;;;1.70;;
9140;SDS011;46330;50.822;7.126;2024-03-25T11:38:15;7.45;;;1.98;;
9140;SDS011;46330;50.822;7.126;2024-03-25T11:40:42;5.88;;;1.77;;
9140;SDS011;46330;50.822;7.126;2024-03-25T11:43:17;6.88;;;1.88;;
9140;SDS011;46330;50.822;7.126;2024-03-25T11:45:46;5.95;;;1.90;;
9140;SDS011;46330;50.822;7.126;2024-03-25T11:48:15;5.80;;;1.85;;
9140;SDS011;46330;50.822;7.126;2024-03-25T11:50:44;4.18;;;1.45;;
9140;SDS011;46330;50.822;7.126;2024-03-25T11:53:16;6.00;;;1.98;;
9140;SDS011;46330;50.822;7.126;2024-03-25T11:55:45;7.65;;;1.55;;
9140;SDS011;46330;50.822;7.126;2024-03-25T11:58:12;6.22;;;1.60;;
9140;SDS011;46330;50.822;7.126;2024-03-25T12:00:42;4.00;;;1.50;;
9140;SDS011;46330;50.822;7.126;2024-03-25T12:03:11;4.90;;;1.45;;
9140;SDS011;46330;50.822;7.126;2024-03-25T12:05:42;4.25;;;1.42;;
9140;SDS011;46330;50.822;7.126;2024-03-25T12:08:08;6.28;;;1.52;;
9140;SDS011;46330;50.822;7.126;2024-03-25T12:10:35;4.75;;;1.70;;
9140;SDS011;46330;50.822;7.126;2024-03-25T12:13:22;4.72;;;1.52;;
9140;SDS011;46330;50.822;7.126;2024-03-25T12:15:48;8.20;;;1.77;;
9140;SDS011;46330;50.822;7.126;2024-03-25T12:18:14;6.05;;;1.60;;
9140;SDS011;46330;50.822;7.126;2024-03-25T12:20:42;4.65;;;1.60;;
9140;SDS011;46330;50.822;7.126;2024-03-25T12:23:11;6.90;;;1.60;;
9140;SDS011;46330;50.822;7.126;2024-03-25T12:25:37;4.68;;;1.60;;
9140;SDS011;46330;50.822;7.126;2024-03-25T12:28:07;4.38;;;1.50;;
9140;SDS011;46330;50.822;7.126;2024-03-25T12:30:40;3.83;;;1.52;;
9140;SDS011;46330;50.822;7.126;2024-03-25T12:33:14;4.95;;;1.67;;
9140;SDS011;46330;50.822;7.126;2024-03-25T12:35:44;6.78;;;1.60;;
9140;SDS011;46330;50.822;7.126;2024-03-25T12:38:21;4.65;;;1.60;;
9140;SDS011;46330;50.822;7.126;2024-03-25T12:40:48;4.80;;;1.40;;
9140;SDS011;46330;50.822;7.126;2024-03-25T12:43:14;4.22;;;1.35;;
9140;SDS011;46330;50.822;7.126;2024-03-25T12:45:41;3.65;;;1.27;;
9140;SDS011;46330;50.822;7.126;2024-03-25T12:48:07;5.18;;;1.60;;
9140;SDS011;46330;50.822;7.126;2024-03-25T12:50:33;3.33;;;1.40;;
9140;SDS011;46330;50.822;7.126;2024-03-25T12:53:01;5.25;;;1.50;;
9140;SDS011;46330;50.822;7.126;2024-03-25T12:55:27;5.07;;;1.50;;
9140;SDS011;46330;50.822;7.126;2024-03-25T12:57:54;4.88;;;1.45;;
9140;SDS011;46330;50.822;7.126;2024-03-25T13:00:20;3.97;;;1.30;;
9140;SDS011;46330;50.822;7.126;2024-03-25T13:02:46;4.13;;;1.40;;
9140;SDS011;46330;50.822;7.126;2024-03-25T13:05:12;7.25;;;1.85;;
9140;SDS011;46330;50.822;7.126;2024-03-25T13:07:38;5.90;;;2.03;;
9140;SDS011;46330;50.822;7.126;2024-03-25T13:10:06;5.13;;;2.05;;
9140;SDS011;46330;50.822;7.126;2024-03-25T13:12:33;3.20;;;1.63;;
9140;SDS011;46330;50.822;7.126;2024-03-25T13:14:59;6.60;;;1.60;;
9140;SDS011;46330;50.822;7.126;2024-03-25T13:17:25;5.85;;;1.63;;
9140;SDS011;46330;50.822;7.126;2024-03-25T13:19:51;4.57;;;1.35;;
9140;SDS011;46330;50.822;7.126;2024-03-25T13:22:18;6.13;;;1.60;;
9140;SDS011;46330;50.822;7.126;2024-03-25T13:24:44;4.80;;;1.35;;
9140;SDS011;46330;50.822;7.126;2024-03-25T13:27:11;2.92;;;1.45;;
9140;SDS011;46330;50.822;7.126;2024-03-25T13:29:40;3.35;;;1.30;;
9140;SDS011;46330;50.822;7.126;2024-03-25T13:32:06;3.83;;;1.30;;
9140;SDS011;46330;50.822;7.126;2024-03-25T13:34:32;5.40;;;1.65;;
9140;SDS011;46330;50.822;7.126;2024-03-25T13:36:58;2.00;;;1.00;;
9140;SDS011;46330;50.822;7.126;2024-03-25T13:39:25;4.28;;;1.30;;
9140;SDS011;46330;50.822;7.126;2024-03-25T13:41:51;3.40;;;1.25;;
9140;SDS011;46330;50.822;7.126;2024-03-25T13:44:18;6.75;;;1.70;;
9140;SDS011;46330;50.822;7.126;2024-03-25T13:46:44;4.40;;;1.40;;
9140;SDS011;46330;50.822;7.126;2024-03-25T13:49:10;3.15;;;1.27;;
9140;SDS011;46330;50.822;7.126;2024-03-25T13:51:36;4.65;;;1.40;;
9140;SDS011;46330;50.822;7.126;2024-03-25T13:54:02;3.35;;;1.20;;
9140;SDS011;46330;50.822;7.126;2024-03-25T13:56:28;4.10;;;1.40;;
9140;SDS011;46330;50.822;7.126;2024-03-25T13:58:54;4.07;;;1.33;;
9140;SDS011;46330;50.822;7.126;2024-03-25T14:01:22;5.45;;;1.50;;
9140;SDS011;46330;50.822;7.126;2024-03-25T14:03:48;4.78;;;1.20;;
9140;SDS011;46330;50.822;7.126;2024-03-25T14:06:14;5.85;;;1.50;;
9140;SDS011;46330;50.822;7.126;2024-03-25T14:08:40;3.58;;;1.35;;
9140;SDS011;46330;50.822;7.126;2024-03-25T14:11:06;5.78;;;1.38;;
9140;SDS011;46330;50.822;7.126;2024-03-25T14:13:32;2.75;;;1.23;;
9140;SDS011;46330;50.822;7.126;2024-03-25T14:15:58;4.95;;;1.63;;
9140;SDS011;46330;50.822;7.126;2024-03-25T14:18:26;3.67;;;1.30;;
9140;SDS011;46330;50.822;7.126;2024-03-25T14:20:52;4.15;;;1.15;;
9140;SDS011;46330;50.822;7.126;2024-03-25T14:23:18;3.92;;;1.25;;
9140;SDS011;46330;50.822;7.126;2024-03-25T14:25:44;4.97;;;1.40;;
9140;SDS011;46330;50.822;7.126;2024-03-25T14:28:10;3.95;;;1.27;;
9140;SDS011;46330;50.822;7.126;2024-03-25T14:30:36;2.88;;;1.25;;
9140;SDS011;46330;50.822;7.126;2024-03-25T14:33:03;4.22;;;1.50;;
9140;SDS011;46330;50.822;7.126;2024-03-25T14:35:30;12.13;;;1.88;;
9140;SDS011;46330;50.822;7.126;2024-03-25T14:37:56;4.80;;;1.30;;
9140;SDS011;46330;50.822;7.126;2024-03-25T14:40:22;5.30;;;1.30;;
9140;SDS011;46330;50.822;7.126;2024-03-25T14:42:48;3.58;;;1.30;;
9140;SDS011;46330;50.822;7.126;2024-03-25T14:45:14;4.90;;;1.52;;
9140;SDS011;46330;50.822;7.126;2024-03-25T14:47:40;5.18;;;1.70;;
9140;SDS011;46330;50.822;7.126;2024-03-25T14:50:07;4.20;;;1.30;;
9140;SDS011;46330;50.822;7.126;2024-03-25T14:52:34;3.75;;;1.25;;
9140;SDS011;46330;50.822;7.126;2024-03-25T14:55:01;3.88;;;1.50;;
9140;SDS011;46330;50.822;7.126;2024-03-25T14:57:27;6.90;;;1.48;;
9140;SDS011;46330;50.822;7.126;2024-03-25T14:59:53;4.03;;;1.30;;
9140;SDS011;46330;50.822;7.126;2024-03-25T15:02:19;3.63;;;1.38;;
9140;SDS011;46330;50.822;7.126;2024-03-25T15:04:45;3.10;;;1.33;;
9140;SDS011;46330;50.822;7.126;2024-03-25T15:07:12;4.10;;;1.40;;
9140;SDS011;46330;50.822;7.126;2024-03-25T15:09:39;4.10;;;1.45;;
9140;SDS011;46330;50.822;7.126;2024-03-25T15:12:06;3.65;;;1.70;;
9140;SDS011;46330;50.822;7.126;2024-03-25T15:14:32;4.22;;;1.40;;
9140;SDS011;46330;50.822;7.126;2024-03-25T15:16:58;3.95;;;1.42;;
9140;SDS011;46330;50.822;7.126;2024-03-25T15:19:24;4.03;;;1.58;;
9140;SDS011;46330;50.822;7.126;2024-03-25T15:21:50;6.38;;;1.50;;
9140;SDS011;46330;50.822;7.126;2024-03-25T15:24:17;5.15;;;1.52;;
9140;SDS011;46330;50.822;7.126;2024-03-25T15:26:44;6.78;;;1.30;;
9140;SDS011;46330;50.822;7.126;2024-03-25T15:29:10;4.40;;;1.63;;
9140;SDS011;46330;50.822;7.126;2024-03-25T15:31:36;4.60;;;1.92;;
9140;SDS011;46330;50.822;7.126;2024-03-25T15:34:02;5.35;;;1.40;;
9140;SDS011;46330;50.822;7.126;2024-03-25T15:36:29;4.43;;;1.35;;
9140;SDS011;46330;50.822;7.126;2024-03-25T15:38:55;8.10;;;1.60;;
9140;SDS011;46330;50.822;7.126;2024-03-25T15:41:21;2.28;;;1.15;;
9140;SDS011;46330;50.822;7.126;2024-03-25T15:43:51;4.10;;;1.60;;
9140;SDS011;46330;50.822;7.126;2024-03-25T15:46:18;3.80;;;1.50;;
9140;SDS011;46330;50.822;7.126;2024-03-25T15:48:44;3.03;;;1.30;;
9140;SDS011;46330;50.822;7.126;2024-03-25T15:51:10;6.18;;;1.55;;
9140;SDS011;46330;50.822;7.126;2024-03-25T15:53:36;4.53;;;1.80;;
9140;SDS011;46330;50.822;7.126;2024-03-25T15:56:02;6.78;;;2.70;;
9140;SDS011;46330;50.822;7.126;2024-03-25T15:58:30;6.47;;;2.85;;
9140;SDS011;46330;50.822;7.126;2024-03-25T16:00:57;3.30;;;1.85;;
9140;SDS011;46330;50.822;7.126;2024-03-25T16:03:23;2.83;;;1.20;;
9140;SDS011;46330;50.822;7.126;2024-03-25T16:05:51;3.03;;;1.60;;
9140;SDS011;46330;50.822;7.126;2024-03-25T16:08:17;2.55;;;1.30;;
9140;SDS011;46330;50.822;7.126;2024-03-25T16:10:43;3.47;;;1.20;;
9140;SDS011;46330;50.822;7.126;2024-03-25T16:13:09;4.80;;;1.20;;
9140;SDS011;46330;50.822;7.126;2024-03-25T16:15:35;2.10;;;1.20;;
9140;SDS011;46330;50.822;7.126;2024-03-25T16:18:03;2.67;;;1.27;;
9140;SDS011;46330;50.822;7.126;2024-03-25T16:20:29;2.67;;;1.40;;
9140;SDS011;46330;50.822;7.126;2024-03-25T16:22:55;7.63;;;1.70;;
9140;SDS011;46330;50.822;7.126;2024-03-25T16:25:21;1.95;;;1.40;;